Time;durP1;ratioP1;P1;durP2;ratioP2;P2;SDS_P1;SDS_P2;PMS_P1;PMS_P2;Temp;Humidity;BMP_temperature;BMP_pressure;BME280_temperature;BME280_humidity;BME280_pressure;Samples;Min_cycle;Max_cycle;Signal;HPM_P1;HPM_P2
2023/06/13 00:00:37;;;;;;;8.03;7.43;;;20.20;41.60;;;;;;4900746;29;20450;-84
2023/06/13 00:03:09;;;;;;;8.10;7.77;;;20.20;41.40;;;;;;4903513;29;20509;-85
2023/06/13 00:05:37;;;;;;;7.33;7.03;;;20.20;41.30;;;;;;4902279;29;20817;-83
2023/06/13 00:08:06;;;;;;;8.67;8.07;;;20.20;41.10;;;;;;4902251;29;20484;-83
2023/06/13 00:10:34;;;;;;;8.40;8.00;;;20.10;40.40;;;;;;4902419;29;20470;-83
2023/06/13 00:13:02;;;;;;;8.20;7.70;;;20.10;41.60;;;;;;4907065;29;20469;-83
2023/06/13 00:15:33;;;;;;;9.03;8.33;;;20.10;41.30;;;;;;4900269;29;20468;-82
2023/06/13 00:18:03;;;;;;;8.70;8.10;;;20.10;41.60;;;;;;4899477;29;21197;-84
2023/06/13 00:20:34;;;;;;;8.50;8.10;;;20.00;41.00;;;;;;4903687;29;20582;-83
2023/06/13 00:23:03;;;;;;;8.33;7.83;;;20.00;40.20;;;;;;4904964;29;20455;-83
2023/06/13 00:25:32;;;;;;;8.10;7.70;;;20.00;41.40;;;;;;4898937;29;20458;-83
2023/06/13 00:28:00;;;;;;;8.17;7.80;;;19.90;39.70;;;;;;4902287;29;20481;-85
2023/06/13 00:30:28;;;;;;;8.07;7.67;;;19.80;39.10;;;;;;4899794;29;20572;-85
2023/06/13 00:32:56;;;;;;;8.50;7.90;;;19.80;39.70;;;;;;4899365;29;20881;-85
2023/06/13 00:35:26;;;;;;;8.40;7.90;;;19.80;39.90;;;;;;4901349;29;21269;-84
2023/06/13 00:37:57;;;;;;;8.50;8.00;;;19.80;39.80;;;;;;4898073;29;21023;-85
2023/06/13 00:40:25;;;;;;;8.00;7.57;;;19.70;39.80;;;;;;4901400;29;20641;-85
2023/06/13 00:42:55;;;;;;;8.83;8.33;;;19.70;39.70;;;;;;4900940;29;20490;-83
2023/06/13 00:45:24;;;;;;;7.87;7.50;;;19.70;39.90;;;;;;4898700;29;20472;-84
2023/06/13 00:47:54;;;;;;;8.27;7.77;;;19.70;39.60;;;;;;4902406;29;20901;-82
2023/06/13 00:50:27;;;;;;;8.40;7.80;;;19.70;40.30;;;;;;4901138;29;20710;-84
2023/06/13 00:52:55;;;;;;;8.20;7.77;;;19.60;39.90;;;;;;4903074;29;21111;-84
2023/06/13 00:55:25;;;;;;;8.97;8.47;;;19.60;39.60;;;;;;4901608;29;20473;-84
2023/06/13 00:57:56;;;;;;;8.27;7.97;;;19.60;40.50;;;;;;4901273;29;20471;-83
2023/06/13 01:00:25;;;;;;;8.57;8.17;;;19.50;42.30;;;;;;4900543;29;20456;-84
2023/06/13 01:02:57;;;;;;;8.43;8.03;;;19.50;41.10;;;;;;4902120;29;20461;-83
2023/06/13 01:05:28;;;;;;;8.80;8.30;;;19.50;40.10;;;;;;4917447;29;20890;-83
2023/06/13 01:07:58;;;;;;;8.30;7.90;;;19.40;40.00;;;;;;4901708;29;21035;-84
2023/06/13 01:10:28;;;;;;;8.20;7.70;;;19.40;40.60;;;;;;4900071;29;20506;-83
2023/06/13 01:13:07;;;;;;;8.90;8.50;;;19.30;38.40;;;;;;4903908;29;20490;-83
2023/06/13 01:15:41;;;;;;;8.53;8.10;;;19.30;38.70;;;;;;4901799;29;20867;-83
2023/06/13 01:18:11;;;;;;;8.80;8.23;;;19.30;39.30;;;;;;4900446;29;20485;-83
2023/06/13 01:20:44;;;;;;;9.47;8.97;;;19.30;39.40;;;;;;4903843;29;20565;-83
2023/06/13 01:23:26;;;;;;;8.30;8.00;;;19.30;39.00;;;;;;4904304;29;20457;-84
2023/06/13 01:26:03;;;;;;;8.40;8.00;;;19.20;38.00;;;;;;4903924;29;20477;-82
2023/06/13 01:28:35;;;;;;;7.70;7.20;;;19.20;39.10;;;;;;4901270;29;20552;-83
2023/06/13 01:31:06;;;;;;;7.73;7.23;;;19.10;38.60;;;;;;4901601;29;20569;-84
2023/06/13 01:33:35;;;;;;;8.07;7.57;;;19.10;38.40;;;;;;4905140;29;20462;-83
2023/06/13 01:36:04;;;;;;;8.27;7.70;;;19.10;38.60;;;;;;4903247;29;20465;-83
2023/06/13 01:38:32;;;;;;;7.93;7.47;;;19.10;38.90;;;;;;4904072;29;20478;-82
2023/06/13 01:41:00;;;;;;;8.30;7.90;;;19.10;39.20;;;;;;4904321;29;20458;-84
2023/06/13 01:43:28;;;;;;;9.10;8.30;;;19.10;53.90;;;;;;4903815;29;20671;-83
2023/06/13 01:46:04;;;;;;;8.70;8.30;;;19.00;39.70;;;;;;4905368;29;20465;-82
2023/06/13 01:48:43;;;;;;;8.10;7.77;;;18.90;38.50;;;;;;4902041;29;20473;-86
2023/06/13 01:51:20;;;;;;;8.17;7.77;;;18.90;38.40;;;;;;4899435;29;20569;-83
2023/06/13 01:53:54;;;;;;;8.20;7.87;;;18.80;39.00;;;;;;4898254;29;20484;-85
2023/06/13 01:56:28;;;;;;;8.77;8.37;;;18.80;38.10;;;;;;4904862;29;20475;-82
2023/06/13 01:58:58;;;;;;;8.63;8.13;;;18.80;38.60;;;;;;4901891;29;20469;-83
2023/06/13 02:01:29;;;;;;;9.37;8.77;;;18.80;39.50;;;;;;4902261;29;20455;-80
2023/06/13 02:03:57;;;;;;;8.53;8.07;;;18.80;39.60;;;;;;4900731;29;20461;-83
2023/06/13 02:06:26;;;;;;;8.43;8.13;;;18.70;38.70;;;;;;4904451;29;20468;-84
2023/06/13 02:08:55;;;;;;;9.13;8.40;;;18.70;39.70;;;;;;4901637;29;20483;-83
2023/06/13 02:11:25;;;;;;;9.27;8.67;;;18.50;38.70;;;;;;4904071;29;20473;-82
2023/06/13 02:13:53;;;;;;;9.10;8.60;;;18.60;39.20;;;;;;4905186;29;20466;-82
2023/06/13 02:16:25;;;;;;;9.07;8.63;;;18.60;38.90;;;;;;4905911;29;20474;-82
2023/06/13 02:18:55;;;;;;;9.33;8.73;;;18.60;39.40;;;;;;4902018;29;20486;-83
2023/06/13 02:21:23;;;;;;;8.90;8.20;;;18.50;39.60;;;;;;4900014;29;20454;-83
2023/06/13 02:23:51;;;;;;;8.73;8.23;;;18.50;39.80;;;;;;4902745;29;20466;-84
2023/06/13 02:26:20;;;;;;;8.63;8.23;;;18.40;39.10;;;;;;4903212;29;20466;-82
2023/06/13 02:28:49;;;;;;;9.57;9.10;;;18.50;39.30;;;;;;4901433;29;20570;-83
2023/06/13 02:31:17;;;;;;;9.23;8.77;;;18.40;39.30;;;;;;4901947;29;20481;-82
2023/06/13 02:33:45;;;;;;;8.70;8.20;;;18.40;39.70;;;;;;4902455;29;20458;-82
2023/06/13 02:36:15;;;;;;;9.03;8.63;;;18.40;39.60;;;;;;4902501;29;21295;-82
2023/06/13 02:38:43;;;;;;;9.30;8.80;;;18.40;44.80;;;;;;4897944;29;20857;-82
2023/06/13 02:41:12;;;;;;;8.37;8.07;;;18.40;39.50;;;;;;4901438;29;20475;-82
2023/06/13 02:43:40;;;;;;;9.00;8.60;;;18.40;40.90;;;;;;4900411;29;20477;-82
2023/06/13 02:46:08;;;;;;;9.10;8.70;;;18.40;40.70;;;;;;4901743;29;20453;-82
2023/06/13 02:48:36;;;;;;;9.20;8.73;;;18.40;41.10;;;;;;4900627;29;20477;-82
2023/06/13 02:51:07;;;;;;;9.47;8.97;;;18.40;41.80;;;;;;4900698;29;21008;-82
2023/06/13 02:53:36;;;;;;;8.63;8.23;;;18.30;40.60;;;;;;4901844;29;20464;-83
2023/06/13 02:56:06;;;;;;;8.00;7.70;;;18.40;42.00;;;;;;4902354;29;20469;-82
2023/06/13 02:58:34;;;;;;;9.03;8.53;;;18.40;41.20;;;;;;4900949;29;20494;-82
2023/06/13 03:01:02;;;;;;;8.80;8.33;;;18.40;41.30;;;;;;4903953;29;20458;-82
2023/06/13 03:03:31;;;;;;;8.57;8.27;;;18.30;40.50;;;;;;4903403;29;20462;-82
2023/06/13 03:05:59;;;;;;;8.83;8.43;;;18.30;41.50;;;;;;4903356;29;20469;-82
2023/06/13 03:08:27;;;;;;;8.50;8.10;;;18.30;42.30;;;;;;4905904;29;20486;-81
2023/06/13 03:10:57;;;;;;;8.97;8.40;;;18.30;41.80;;;;;;4900836;29;20496;-81
2023/06/13 03:13:25;;;;;;;8.77;8.27;;;18.30;41.80;;;;;;4901210;29;20458;-82
2023/06/13 03:15:56;;;;;;;9.07;8.57;;;18.20;41.50;;;;;;4906808;29;20460;-81
2023/06/13 03:18:25;;;;;;;8.87;8.47;;;18.10;40.80;;;;;;4904917;29;20605;-81
2023/06/13 03:20:53;;;;;;;8.77;8.37;;;18.10;41.20;;;;;;4908985;29;20875;-81
2023/06/13 03:23:21;;;;;;;9.00;8.60;;;18.10;40.80;;;;;;4904925;29;20473;-81
2023/06/13 03:25:50;;;;;;;9.27;8.70;;;18.10;42.70;;;;;;4907229;29;20450;-80
2023/06/13 03:28:19;;;;;;;9.10;8.70;;;18.00;42.00;;;;;;4906693;29;20486;-81
2023/06/13 03:30:47;;;;;;;9.37;8.90;;;18.00;42.60;;;;;;4901220;29;20445;-80
2023/06/13 03:33:15;;;;;;;9.33;8.87;;;18.10;42.20;;;;;;4907436;29;20466;-81
2023/06/13 03:35:44;;;;;;;9.47;9.00;;;18.00;41.90;;;;;;4906996;29;20454;-81
2023/06/13 03:38:12;;;;;;;9.00;8.47;;;18.00;41.10;;;;;;4903204;29;20497;-81
2023/06/13 03:40:40;;;;;;;8.87;8.37;;;18.00;41.60;;;;;;4901184;29;20473;-81
2023/06/13 03:43:08;;;;;;;8.90;8.50;;;18.00;42.20;;;;;;4904692;29;20463;-81
2023/06/13 03:45:37;;;;;;;9.63;9.03;;;18.00;43.10;;;;;;4905795;29;20469;-81
2023/06/13 03:48:06;;;;;;;9.67;9.17;;;17.80;41.50;;;;;;4919146;29;20504;-81
2023/06/13 03:50:34;;;;;;;9.70;9.30;;;17.80;42.00;;;;;;4902711;29;21030;-80
2023/06/13 03:53:02;;;;;;;9.10;8.70;;;17.80;42.00;;;;;;4902026;29;20547;-83
2023/06/13 03:55:31;;;;;;;9.73;9.23;;;17.80;42.70;;;;;;4898463;29;20494;-83
2023/06/13 03:58:00;;;;;;;9.70;9.10;;;17.80;42.10;;;;;;4903024;29;20553;-82
2023/06/13 04:00:28;;;;;;;9.20;8.80;;;17.80;50.40;;;;;;4898042;29;21004;-83
2023/06/13 04:03:00;;;;;;;9.27;8.90;;;17.80;42.60;;;;;;4904041;29;21523;-83
2023/06/13 04:05:28;;;;;;;9.43;9.03;;;17.80;42.30;;;;;;4904198;29;20553;-83
2023/06/13 04:07:56;;;;;;;9.30;8.90;;;17.90;43.60;;;;;;4903098;29;20568;-82
2023/06/13 04:10:24;;;;;;;10.20;9.60;;;17.80;43.60;;;;;;4904932;29;21115;-83
2023/06/13 04:12:53;;;;;;;10.30;9.70;;;17.80;44.70;;;;;;4902671;29;20486;-83
2023/06/13 04:15:21;;;;;;;9.57;9.27;;;17.80;44.70;;;;;;4905490;29;20469;-83
2023/06/13 04:17:52;;;;;;;9.53;9.03;;;17.80;45.20;;;;;;4902572;29;20490;-82
2023/06/13 04:20:23;;;;;;;8.80;8.40;;;17.70;44.70;;;;;;4905519;29;20515;-83
2023/06/13 04:22:52;;;;;;;9.30;8.90;;;17.80;46.70;;;;;;4900910;29;20964;-83
2023/06/13 04:25:20;;;;;;;9.90;9.40;;;17.70;46.40;;;;;;4901223;29;20497;-83
2023/06/13 04:27:48;;;;;;;9.67;9.13;;;17.80;46.50;;;;;;4902224;29;20517;-82
2023/06/13 04:30:17;;;;;;;10.90;9.83;;;17.80;47.30;;;;;;4903205;29;20486;-83
2023/06/13 04:32:45;;;;;;;9.67;9.13;;;17.90;47.60;;;;;;4904128;29;21154;-76
2023/06/13 04:35:16;;;;;;;10.00;9.53;;;17.90;47.90;;;;;;4902856;29;20458;-77
2023/06/13 04:37:46;;;;;;;10.90;9.90;;;18.00;49.90;;;;;;4902071;29;20533;-76
2023/06/13 04:40:16;;;;;;;10.60;9.90;;;18.20;51.20;;;;;;4900763;29;21297;-80
2023/06/13 04:42:47;;;;;;;10.20;9.50;;;18.20;51.00;;;;;;4900732;29;20463;-80
2023/06/13 04:45:20;;;;;;;10.20;9.50;;;18.00;49.90;;;;;;4902773;29;20458;-81
2023/06/13 04:47:51;;;;;;;10.40;9.67;;;18.00;49.20;;;;;;4905213;29;21015;-81
2023/06/13 04:50:25;;;;;;;10.30;9.60;;;18.10;50.20;;;;;;4903778;29;20966;-81
2023/06/13 04:52:55;;;;;;;9.97;9.47;;;18.10;49.80;;;;;;4901139;29;21003;-81
2023/06/13 04:55:25;;;;;;;9.63;9.13;;;18.10;51.40;;;;;;4900182;29;20640;-80
2023/06/13 04:57:54;;;;;;;9.63;9.10;;;18.10;50.50;;;;;;4901053;29;20542;-81
2023/06/13 05:00:24;;;;;;;8.73;8.27;;;18.10;50.90;;;;;;4903483;29;20975;-80
2023/06/13 05:02:55;;;;;;;9.10;8.50;;;18.00;50.40;;;;;;4903372;29;20442;-80
2023/06/13 05:05:24;;;;;;;9.50;9.10;;;18.10;51.20;;;;;;4890815;29;20587;-80
2023/06/13 05:07:55;;;;;;;9.07;8.67;;;18.10;52.20;;;;;;4900077;29;20490;-80
2023/06/13 05:10:24;;;;;;;9.53;9.03;;;18.10;52.20;;;;;;4899871;29;20553;-80
2023/06/13 05:12:53;;;;;;;9.20;8.70;;;18.10;52.00;;;;;;4900995;29;20555;-80
2023/06/13 05:15:22;;;;;;;9.10;8.70;;;18.10;53.10;;;;;;4895219;29;20464;-80
2023/06/13 05:17:52;;;;;;;9.43;9.03;;;18.20;53.90;;;;;;4898729;29;20493;-80
2023/06/13 05:20:22;;;;;;;9.70;9.30;;;18.20;68.60;;;;;;4894364;29;20462;-80
2023/06/13 05:22:52;;;;;;;9.20;8.80;;;18.20;52.90;;;;;;4899307;29;20493;-80
2023/06/13 05:25:22;;;;;;;9.23;8.77;;;18.30;53.20;;;;;;4901276;29;20498;-80
2023/06/13 05:27:54;;;;;;;11.63;9.33;;;18.30;54.50;;;;;;4898527;29;20493;-80
2023/06/13 05:30:22;;;;;;;9.13;8.73;;;18.40;52.70;;;;;;4901102;29;20470;-81
2023/06/13 05:32:51;;;;;;;9.17;8.80;;;18.40;53.00;;;;;;4899290;29;20482;-80
2023/06/13 05:35:20;;;;;;;9.23;8.93;;;18.40;54.10;;;;;;4902094;29;20454;-80
2023/06/13 05:37:50;;;;;;;9.00;8.53;;;18.40;54.90;;;;;;4899226;29;20484;-81
2023/06/13 05:40:18;;;;;;;8.63;8.33;;;18.50;55.20;;;;;;4897154;29;20473;-79
2023/06/13 05:42:48;;;;;;;9.33;8.73;;;18.50;54.50;;;;;;4900503;29;20836;-80
2023/06/13 05:45:16;;;;;;;9.43;8.93;;;18.50;55.10;;;;;;4901229;29;20463;-80
2023/06/13 05:47:44;;;;;;;8.67;8.37;;;18.50;52.30;;;;;;4900866;29;20569;-79
2023/06/13 05:50:12;;;;;;;8.87;8.37;;;18.60;51.40;;;;;;4901165;29;20516;-78
2023/06/13 05:52:41;;;;;;;9.10;8.60;;;18.50;49.10;;;;;;4899325;29;20486;-80
2023/06/13 05:55:09;;;;;;;9.47;8.97;;;18.60;50.00;;;;;;4898945;29;20466;-80
2023/06/13 05:57:41;;;;;;;8.73;8.43;;;18.60;49.80;;;;;;4899497;29;20518;-80
2023/06/13 06:00:13;;;;;;;9.30;8.70;;;18.60;50.00;;;;;;4897963;29;20469;-79
2023/06/13 06:02:44;;;;;;;8.70;8.07;;;18.50;47.30;;;;;;4899074;29;20454;-80
2023/06/13 06:05:13;;;;;;;8.80;8.30;;;18.50;47.70;;;;;;4900839;29;20872;-81
2023/06/13 06:07:43;;;;;;;7.93;7.70;;;18.60;47.40;;;;;;4899499;29;20482;-80
2023/06/13 06:10:12;;;;;;;8.40;8.00;;;18.60;43.10;;;;;;4901691;29;21058;-81
2023/06/13 06:12:42;;;;;;;8.20;7.70;;;18.50;42.90;;;;;;4894078;29;20224;-80
2023/06/13 06:15:12;;;;;;;7.50;7.30;;;18.60;41.10;;;;;;4898291;29;20525;-80
2023/06/13 06:17:40;;;;;;;7.87;7.17;;;18.60;40.50;;;;;;4900393;29;20477;-82
2023/06/13 06:20:10;;;;;;;7.47;7.17;;;18.60;39.10;;;;;;4899372;29;20506;-80
2023/06/13 06:22:38;;;;;;;8.23;7.83;;;18.50;39.00;;;;;;4900718;29;20529;-81
2023/06/13 06:25:11;;;;;;;7.50;7.20;;;18.50;38.50;;;;;;4900215;29;20496;-80
2023/06/13 06:27:43;;;;;;;8.10;7.70;;;18.50;36.80;;;;;;4902996;29;20483;-80
2023/06/13 06:30:13;;;;;;;7.33;7.03;;;18.50;41.80;;;;;;4898924;29;20466;-81
2023/06/13 06:32:43;;;;;;;8.07;7.67;;;18.50;37.10;;;;;;4901195;29;20465;-81
2023/06/13 06:35:11;;;;;;;6.90;6.50;;;18.50;36.40;;;;;;4920863;29;20507;-82
2023/06/13 06:37:39;;;;;;;7.43;7.00;;;18.50;36.80;;;;;;4904496;29;20482;-81
2023/06/13 06:40:09;;;;;;;7.87;7.27;;;18.60;38.70;;;;;;4905895;29;20487;-80
2023/06/13 06:42:37;;;;;;;7.40;7.00;;;18.70;37.70;;;;;;4907138;29;20449;-81
2023/06/13 06:45:06;;;;;;;7.30;6.80;;;18.80;37.80;;;;;;4904522;29;20521;-81
2023/06/13 06:47:36;;;;;;;7.93;7.63;;;18.70;53.20;;;;;;4904738;29;21090;-81
2023/06/13 06:50:04;;;;;;;9.13;8.67;;;18.90;40.60;;;;;;4902480;29;20869;-81
2023/06/13 06:52:32;;;;;;;7.33;7.03;;;19.00;38.60;;;;;;4905707;29;20757;-81
2023/06/13 06:55:01;;;;;;;7.63;7.30;;;19.20;41.50;;;;;;4904861;29;20500;-81
2023/06/13 06:57:29;;;;;;;8.03;7.23;;;19.30;42.20;;;;;;4907520;29;20474;-81
2023/06/13 06:59:57;;;;;;;7.50;7.13;;;19.30;41.10;;;;;;4908231;29;20458;-81
2023/06/13 07:02:25;;;;;;;7.67;7.27;;;19.30;40.60;;;;;;4906423;29;20457;-81
2023/06/13 07:04:55;;;;;;;7.83;7.43;;;19.20;41.20;;;;;;4904933;29;20466;-81
2023/06/13 07:07:23;;;;;;;8.20;7.77;;;19.40;42.00;;;;;;4902391;29;20481;-81
2023/06/13 07:09:51;;;;;;;8.57;8.27;;;19.50;44.80;;;;;;4901225;29;20461;-81
2023/06/13 07:12:19;;;;;;;8.27;7.70;;;19.50;45.10;;;;;;4902684;29;20476;-81
2023/06/13 07:14:47;;;;;;;8.40;8.00;;;19.50;43.60;;;;;;4903023;29;20536;-81
2023/06/13 07:17:15;;;;;;;7.70;7.37;;;19.60;44.30;;;;;;4901830;29;20489;-81
2023/06/13 07:19:44;;;;;;;8.40;7.90;;;19.80;46.30;;;;;;4903983;29;20498;-82
2023/06/13 07:22:13;;;;;;;8.23;7.83;;;19.90;46.00;;;;;;4901002;29;20458;-82
2023/06/13 07:24:42;;;;;;;8.23;7.83;;;20.00;46.20;;;;;;4901383;29;20462;-81
2023/06/13 07:27:10;;;;;;;8.07;7.77;;;20.00;46.40;;;;;;4902575;29;20569;-81
2023/06/13 07:29:40;;;;;;;8.40;8.00;;;20.10;46.80;;;;;;4903025;29;20555;-81
2023/06/13 07:32:08;;;;;;;7.80;7.37;;;20.10;47.20;;;;;;4905088;29;20466;-81
2023/06/13 07:34:37;;;;;;;8.00;7.50;;;20.10;45.60;;;;;;4905786;29;20489;-81
2023/06/13 07:37:08;;;;;;;7.90;7.57;;;20.00;43.80;;;;;;4907307;29;20488;-82
2023/06/13 07:39:37;;;;;;;8.37;7.87;;;20.00;41.80;;;;;;4902422;29;21043;-81
2023/06/13 07:42:06;;;;;;;8.03;7.60;;;20.10;41.90;;;;;;4902402;29;20462;-81
2023/06/13 07:44:34;;;;;;;8.23;7.83;;;20.10;44.60;;;;;;4903418;29;20465;-81
2023/06/13 07:47:02;;;;;;;7.63;7.23;;;20.20;45.40;;;;;;4898638;29;20486;-82
2023/06/13 07:49:30;;;;;;;7.77;7.27;;;20.10;42.10;;;;;;4901141;29;21035;-82
2023/06/13 07:51:59;;;;;;;7.90;7.40;;;20.20;44.90;;;;;;4903285;29;20505;-81
2023/06/13 07:54:27;;;;;;;8.07;7.70;;;20.20;42.40;;;;;;4901510;29;20492;-80
2023/06/13 07:56:57;;;;;;;8.07;7.67;;;20.20;42.30;;;;;;4903017;29;20464;-80
2023/06/13 07:59:28;;;;;;;8.50;8.07;;;20.30;43.40;;;;;;4904346;29;20446;-80
2023/06/13 08:01:56;;;;;;;8.10;7.70;;;20.30;45.30;;;;;;4904156;29;21094;-81
2023/06/13 08:04:25;;;;;;;7.83;7.53;;;20.50;46.60;;;;;;4903070;29;20513;-81
2023/06/13 08:07:10;;;;;;;7.50;7.20;;;20.50;46.50;;;;;;4902818;29;20560;-81
2023/06/13 08:09:39;;;;;;;8.13;7.73;;;20.50;44.20;;;;;;4899245;29;20742;-81
2023/06/13 08:12:10;;;;;;;8.47;7.73;;;20.50;45.40;;;;;;4904665;29;20462;-83
2023/06/13 08:14:38;;;;;;;7.97;7.57;;;20.50;46.70;;;;;;4907125;29;20473;-84
2023/06/13 08:17:06;;;;;;;7.97;7.60;;;20.60;47.20;;;;;;4903479;29;20501;-83
2023/06/13 08:19:34;;;;;;;8.40;8.10;;;20.70;47.70;;;;;;4904255;29;20476;-84
2023/06/13 08:22:03;;;;;;;8.33;7.93;;;20.70;50.90;;;;;;4905443;29;20487;-84
2023/06/13 08:24:31;;;;;;;8.43;8.03;;;20.80;50.70;;;;;;4906283;29;21290;-85
2023/06/13 08:26:59;;;;;;;8.03;7.40;;;20.90;47.70;;;;;;4905251;29;20489;-84
2023/06/13 08:29:29;;;;;;;7.77;7.37;;;20.80;45.20;;;;;;4900171;29;20484;-84
2023/06/13 08:31:58;;;;;;;7.87;7.47;;;20.90;47.10;;;;;;4903965;29;20488;-83
2023/06/13 08:34:27;;;;;;;9.43;8.77;;;20.90;48.20;;;;;;4903414;29;20489;-84
2023/06/13 08:36:55;;;;;;;7.50;7.20;;;20.90;45.40;;;;;;4901952;29;20463;-84
2023/06/13 08:39:24;;;;;;;7.60;7.10;;;21.00;47.50;;;;;;4906806;29;20947;-84
2023/06/13 08:41:53;;;;;;;8.47;7.83;;;21.00;49.80;;;;;;4903804;29;20471;-84
2023/06/13 08:44:22;;;;;;;8.50;8.00;;;21.20;52.60;;;;;;4903291;29;20831;-84
2023/06/13 08:46:51;;;;;;;7.73;7.33;;;21.20;50.80;;;;;;4905376;29;20462;-82
2023/06/13 08:49:22;;;;;;;8.23;7.63;;;21.10;49.20;;;;;;4900400;29;20466;-82
2023/06/13 08:51:54;;;;;;;8.20;7.70;;;21.20;51.10;;;;;;4903702;29;21040;-84
2023/06/13 08:54:24;;;;;;;12.20;7.80;;;21.30;49.90;;;;;;4903568;29;21055;-83
2023/06/13 08:56:54;;;;;;;8.93;8.27;;;21.30;49.80;;;;;;4905276;29;20998;-83
2023/06/13 08:59:26;;;;;;;9.23;8.40;;;21.40;52.20;;;;;;4903574;29;20775;-83
2023/06/13 09:01:56;;;;;;;9.03;8.37;;;21.40;53.60;;;;;;4904665;29;20537;-84
2023/06/13 09:04:27;;;;;;;8.23;7.80;;;21.50;53.70;;;;;;4906601;29;20459;-84
2023/06/13 09:06:58;;;;;;;8.20;7.80;;;21.40;49.80;;;;;;4901236;29;20984;-84
2023/06/13 09:09:26;;;;;;;8.27;7.97;;;21.50;50.30;;;;;;4902672;29;20804;-82
2023/06/13 09:11:56;;;;;;;9.43;8.73;;;21.60;50.40;;;;;;4904708;29;20516;-84
2023/06/13 09:14:24;;;;;;;8.20;7.83;;;21.60;51.00;;;;;;4902037;29;21075;-83
2023/06/13 09:16:55;;;;;;;7.87;7.50;;;21.50;50.50;;;;;;4900447;29;20446;-83
2023/06/13 09:19:23;;;;;;;8.43;8.03;;;21.60;52.40;;;;;;4900778;29;20462;-83
2023/06/13 09:21:51;;;;;;;8.13;7.60;;;21.60;53.10;;;;;;4903295;29;20458;-82
2023/06/13 09:24:20;;;;;;;8.83;7.93;;;21.60;50.60;;;;;;4898035;29;20473;-83
2023/06/13 09:26:48;;;;;;;8.13;7.83;;;21.70;54.50;;;;;;4895114;29;21040;-82
2023/06/13 09:29:22;;;;;;;8.20;7.80;;;21.80;53.40;;;;;;4901798;29;20465;-83
2023/06/13 09:32:28;;;;;;;8.33;7.73;;;21.80;54.00;;;;;;4901712;29;20470;-83
2023/06/13 09:34:57;;;;;;;7.87;7.47;;;21.90;56.70;;;;;;4902074;29;20572;-83
2023/06/13 09:37:32;;;;;;;8.30;7.70;;;21.90;53.10;;;;;;4902540;29;20520;-84
2023/06/13 09:40:06;;;;;;;7.90;7.60;;;21.90;54.20;;;;;;4900919;29;20480;-83
2023/06/13 09:55:12;;;;;;;7.60;7.30;;;22.00;52.80;;;;;;4921946;29;20511;-83
2023/06/13 10:30:35;;;;;;;8.77;8.40;;;22.60;61.70;;;;;;4917216;29;20458;-83
2023/06/13 10:38:33;;;;;;;8.87;8.40;;;22.50;53.90;;;;;;4899030;29;20473;-84
2023/06/13 10:50:04;;;;;;;7.93;7.43;;;22.70;60.40;;;;;;5276753;23;20621;-83
2023/06/13 10:52:37;;;;;;;8.30;7.80;;;22.80;59.80;;;;;;4953811;28;20848;-83
2023/06/13 10:55:05;;;;;;;10.00;9.33;;;22.90;63.70;;;;;;4956167;28;20852;-83
2023/06/13 10:57:50;;;;;;;9.53;8.93;;;22.90;64.40;;;;;;4955246;28;20515;-83
2023/06/13 11:00:26;;;;;;;7.93;7.63;;;22.90;61.80;;;;;;4951788;28;20463;-83
2023/06/13 11:03:07;;;;;;;9.17;8.53;;;23.00;64.20;;;;;;4956817;28;20496;-83
2023/06/13 11:05:47;;;;;;;8.10;7.73;;;23.00;65.40;;;;;;4955833;28;20450;-84
2023/06/13 11:08:20;;;;;;;9.70;9.20;;;23.00;63.20;;;;;;4955632;28;20509;-84
2023/06/13 11:10:49;;;;;;;8.13;7.73;;;23.10;62.40;;;;;;4957428;28;20475;-83
2023/06/13 11:13:19;;;;;;;9.00;8.60;;;23.10;62.20;;;;;;4957698;28;20565;-84
2023/06/13 11:15:48;;;;;;;8.27;7.93;;;23.10;65.10;;;;;;4960369;28;20954;-84
2023/06/13 11:18:32;;;;;;;8.40;8.10;;;23.20;66.10;;;;;;4961727;28;20472;-83
2023/06/13 11:21:03;;;;;;;8.20;7.90;;;23.20;59.90;;;;;;4962421;28;20784;-81
2023/06/13 11:23:49;;;;;;;8.53;8.13;;;23.20;60.90;;;;;;4958628;28;20450;-84
2023/06/13 11:26:21;;;;;;;8.27;7.90;;;23.20;59.00;;;;;;4957608;28;20843;-83
2023/06/13 11:29:12;;;;;;;8.33;7.13;;;23.20;63.30;;;;;;4961259;28;20501;-84
2023/06/13 11:32:13;;;;;;;6.93;6.73;;;23.30;59.50;;;;;;4938422;28;20452;-83
2023/06/13 11:42:55;;;;;;;8.20;7.90;;;23.40;64.20;;;;;;4882845;29;20485;-83
2023/06/13 11:45:40;;;;;;;8.50;8.00;;;23.50;66.30;;;;;;4811496;29;20587;-84
2023/06/13 11:48:22;;;;;;;8.63;8.23;;;23.50;67.10;;;;;;4893965;29;20625;-84
2023/06/13 11:50:54;;;;;;;7.90;7.40;;;23.50;62.90;;;;;;4956249;28;20506;-84
2023/06/13 11:53:23;;;;;;;7.37;6.97;;;23.60;61.30;;;;;;4952699;28;20494;-83
2023/06/13 11:56:17;;;;;;;8.40;7.90;;;23.60;77.30;;;;;;4959169;28;20475;-84
2023/06/13 11:58:46;;;;;;;7.43;7.13;;;23.60;60.70;;;;;;4954870;28;20567;-84
2023/06/13 12:12:56;;;;;;;7.93;7.40;;;23.80;62.60;;;;;;4901715;29;20463;-84
2023/06/13 12:27:01;;;;;;;8.63;8.13;;;23.80;63.90;;;;;;4993304;28;20521;-83
2023/06/13 12:33:33;;;;;;;8.10;7.70;;;23.90;68.90;;;;;;4912717;29;20545;-85
2023/06/13 12:43:47;;;;;;;9.00;8.60;;;24.00;71.10;;;;;;4947970;28;20447;-85
2023/06/13 12:46:15;;;;;;;8.93;8.27;;;24.00;69.60;;;;;;4961166;28;20473;-84
2023/06/13 12:52:47;;;;;;;8.87;8.47;;;24.10;70.60;;;;;;4993638;28;20453;-84
2023/06/13 12:59:16;;;;;;;8.60;8.20;;;24.20;69.60;;;;;;4944212;28;20957;-82
2023/06/13 13:05:42;;;;;;;8.40;7.97;;;24.20;69.00;;;;;;4947805;28;20467;-85
2023/06/13 13:08:12;;;;;;;8.17;7.77;;;24.20;72.20;;;;;;4947067;28;20473;-85
2023/06/13 13:10:40;;;;;;;8.80;8.40;;;24.20;69.20;;;;;;4949479;28;20453;-85
2023/06/13 13:13:09;;;;;;;8.37;8.00;;;24.30;71.20;;;;;;4949484;28;20445;-85
2023/06/13 13:15:38;;;;;;;9.30;8.80;;;24.30;70.30;;;;;;4946076;28;21020;-83
2023/06/13 13:18:07;;;;;;;8.97;8.37;;;24.30;69.80;;;;;;4949886;28;20523;-81
2023/06/13 13:20:35;;;;;;;8.40;8.00;;;24.30;90.30;;;;;;4947164;28;20472;-83
2023/06/13 13:31:07;;;;;;;8.40;8.00;;;24.30;61.70;;;;;;4944653;28;20517;-83
2023/06/13 13:34:11;;;;;;;9.60;8.90;;;24.30;65.50;;;;;;4943931;28;20942;-84
2023/06/13 13:40:53;;;;;;;9.13;8.27;;;24.30;65.30;;;;;;4886140;29;20454;-81
2023/06/13 13:48:17;;;;;;;8.13;7.77;;;24.40;66.40;;;;;;4881245;29;20461;-84
2023/06/13 13:58:39;;;;;;;7.47;6.87;;;24.40;61.90;;;;;;5092886;23;20507;-83
2023/06/13 14:04:57;;;;;;;7.87;7.47;;;24.50;64.10;;;;;;4958104;28;20461;-82
2023/06/13 14:08:27;;;;;;;7.00;6.60;;;24.50;64.00;;;;;;4991179;28;20533;-84
2023/06/13 14:10:59;;;;;;;7.90;7.40;;;24.50;62.20;;;;;;4989288;28;20456;-83
2023/06/13 14:18:42;;;;;;;7.33;6.93;;;24.50;62.10;;;;;;4925907;29;20485;-83
2023/06/13 14:21:12;;;;;;;7.80;7.30;;;24.60;66.10;;;;;;4923246;29;20488;-85
2023/06/13 14:23:40;;;;;;;7.70;7.20;;;24.50;63.50;;;;;;4929662;29;21073;-84
2023/06/13 14:26:09;;;;;;;6.77;6.47;;;24.60;66.00;;;;;;4928942;29;21128;-85
2023/06/13 14:28:38;;;;;;;7.27;6.87;;;24.60;66.60;;;;;;4922409;29;20488;-83
2023/06/13 14:31:47;;;;;;;8.30;7.40;;;24.60;66.90;;;;;;4907054;29;20587;-83
2023/06/13 14:38:51;;;;;;;8.00;7.60;;;24.60;66.90;;;;;;4989291;23;21104;-81
2023/06/13 14:41:59;;;;;;;6.63;6.33;;;24.60;68.60;;;;;;4997797;28;20454;-85
2023/06/13 14:45:25;;;;;;;6.70;6.40;;;24.60;63.40;;;;;;4903195;29;20613;-84
2023/06/13 14:47:54;;;;;;;6.87;6.23;;;24.60;65.80;;;;;;4887093;29;20478;-85
2023/06/13 14:53:26;;;;;;;6.90;6.43;;;24.70;70.50;;;;;;4949785;28;20580;-84
2023/06/13 14:55:57;;;;;;;7.23;6.73;;;24.70;68.80;;;;;;4987974;28;20462;-84
2023/06/13 14:58:26;;;;;;;6.43;6.13;;;24.70;67.00;;;;;;4986685;28;20466;-85
2023/06/13 15:00:54;;;;;;;7.87;7.13;;;24.70;68.40;;;;;;4965372;28;20450;-85
2023/06/13 15:07:21;;;;;;;7.60;7.30;;;24.70;67.10;;;;;;4978404;28;20544;-86
2023/06/13 15:10:24;;;;;;;7.50;7.00;;;24.70;64.30;;;;;;4987604;28;20477;-85
2023/06/13 15:13:08;;;;;;;7.63;7.27;;;24.80;68.80;;;;;;4965214;28;20841;-86
2023/06/13 15:15:36;;;;;;;8.00;7.60;;;24.80;70.10;;;;;;4974009;28;21120;-83
2023/06/13 15:18:04;;;;;;;7.77;7.47;;;24.80;68.80;;;;;;4981868;28;20552;-85
2023/06/13 15:20:33;;;;;;;8.00;7.40;;;24.80;69.30;;;;;;4978348;28;20466;-85
2023/06/13 15:23:02;;;;;;;7.27;6.87;;;24.80;69.80;;;;;;4983502;28;20461;-85
2023/06/13 15:25:30;;;;;;;6.57;6.17;;;24.80;67.40;;;;;;4984948;28;20513;-84
2023/06/13 15:27:58;;;;;;;7.23;6.80;;;24.70;63.00;;;;;;4966821;28;21037;-84
2023/06/13 15:30:28;;;;;;;6.73;6.43;;;24.70;66.60;;;;;;4986846;28;20918;-85
2023/06/13 15:32:56;;;;;;;7.30;7.00;;;24.70;66.70;;;;;;4980864;28;20454;-85
2023/06/13 15:35:24;;;;;;;7.77;7.37;;;24.80;67.40;;;;;;4986639;28;20557;-85
2023/06/13 15:37:52;;;;;;;7.60;7.20;;;24.80;66.10;;;;;;4978730;28;20493;-85
2023/06/13 15:40:21;;;;;;;7.83;7.40;;;24.80;67.80;;;;;;4982076;28;20465;-84
2023/06/13 15:42:50;;;;;;;8.23;7.77;;;24.80;69.30;;;;;;4973354;28;21237;-84
2023/06/13 15:45:18;;;;;;;7.63;7.30;;;24.80;68.80;;;;;;4978103;28;20443;-83